createdAt,value
2018-05-01T00:00:20.834Z,8.00
2018-05-01T00:01:20.811Z,8.00
2018-05-01T00:02:20.791Z,8.00
2018-05-01T00:03:20.768Z,8.00
2018-05-01T00:04:20.751Z,8.00
2018-05-01T00:05:20.727Z,8.00
2018-05-01T00:06:20.714Z,8.00
2018-05-01T00:07:20.691Z,8.00
2018-05-01T00:08:20.666Z,8.00
2018-05-01T00:09:20.645Z,8.00
2018-05-01T00:10:20.624Z,8.00
2018-05-01T00:11:20.602Z,8.00
2018-05-01T00:12:20.590Z,8.00
2018-05-01T00:13:20.569Z,8.00
2018-05-01T00:14:20.541Z,8.00
2018-05-01T00:15:20.528Z,8.00
2018-05-01T00:16:20.503Z,8.00
2018-05-01T00:17:20.480Z,8.00
2018-05-01T00:18:20.457Z,8.00
2018-05-01T00:19:20.437Z,8.00
2018-05-01T00:20:20.417Z,8.00
2018-05-01T00:21:20.414Z,8.00
2018-05-01T00:22:20.373Z,8.00
2018-05-01T00:23:20.362Z,8.00
2018-05-01T00:24:20.334Z,8.00
2018-05-01T00:25:20.309Z,8.00
2018-05-01T00:26:20.290Z,8.00
2018-05-01T00:27:20.269Z,8.00
2018-05-01T00:28:20.247Z,8.00
2018-05-01T00:29:20.227Z,8.00
2018-05-01T00:30:20.257Z,8.00
2018-05-01T00:31:20.185Z,8.00
2018-05-01T00:32:20.168Z,8.00
2018-05-01T00:33:20.142Z,8.00
2018-05-01T00:34:20.123Z,8.00
2018-05-01T00:35:20.100Z,8.00
2018-05-01T00:36:20.079Z,8.00
2018-05-01T00:37:20.061Z,8.00
2018-05-01T00:38:20.038Z,8.00
2018-05-01T00:39:20.019Z,8.00
2018-05-01T00:40:19.997Z,8.00
2018-05-01T00:41:19.975Z,8.00
2018-05-01T00:42:19.955Z,8.00
2018-05-01T00:43:19.933Z,8.00
2018-05-01T00:44:19.913Z,8.00
2018-05-01T00:45:19.890Z,8.00
2018-05-01T00:46:19.870Z,8.00
2018-05-01T00:47:19.847Z,8.00
2018-05-01T00:48:19.836Z,8.00
2018-05-01T00:49:19.830Z,8.00
2018-05-01T00:50:19.785Z,8.00
2018-05-01T00:51:19.772Z,12.00
2018-05-01T00:52:19.802Z,8.00
2018-05-01T00:53:19.734Z,12.00
2018-05-01T00:54:19.700Z,12.00
2018-05-01T00:55:19.681Z,12.00
2018-05-01T00:56:19.658Z,12.00
2018-05-01T00:57:19.638Z,12.00
2018-05-01T00:58:19.616Z,8.00
2018-05-01T00:59:19.598Z,8.00
2018-05-01T01:00:19.575Z,8.00
2018-05-01T01:01:19.559Z,8.00
2018-05-01T01:02:19.532Z,8.00
2018-05-01T01:03:19.518Z,8.00
2018-05-01T01:04:19.506Z,8.00
2018-05-01T01:05:19.468Z,8.00
2018-05-01T01:06:19.449Z,8.00
2018-05-01T01:07:19.425Z,12.00
2018-05-01T01:08:19.410Z,8.00
2018-05-01T01:09:19.382Z,8.00
2018-05-01T01:10:19.362Z,8.00
2018-05-01T01:11:19.340Z,8.00
2018-05-01T01:12:19.321Z,8.00
2018-05-01T01:13:19.297Z,8.00
2018-05-01T01:14:19.325Z,8.00
2018-05-01T01:15:19.254Z,8.00
2018-05-01T01:16:19.232Z,8.00
2018-05-01T01:17:19.211Z,8.00
2018-05-01T01:18:19.189Z,8.00
2018-05-01T01:19:19.170Z,8.00
2018-05-01T01:20:19.148Z,8.00
2018-05-01T01:21:19.125Z,8.00
2018-05-01T01:22:19.105Z,8.00
2018-05-01T01:23:19.083Z,8.00
2018-05-01T01:24:19.063Z,8.00
2018-05-01T01:25:19.043Z,8.00
2018-05-01T01:26:19.022Z,8.00
2018-05-01T01:27:18.997Z,8.00
2018-05-01T01:28:18.976Z,8.00
2018-05-01T01:29:18.954Z,8.00
2018-05-01T01:30:18.933Z,8.00
2018-05-01T01:31:18.914Z,8.00
2018-05-01T01:32:18.890Z,8.00
2018-05-01T01:33:18.867Z,8.00
2018-05-01T01:34:18.847Z,8.00
2018-05-01T01:35:18.824Z,8.00
2018-05-01T01:36:18.813Z,8.00
2018-05-01T01:37:18.782Z,8.00
2018-05-01T01:38:18.761Z,8.00
2018-05-01T01:39:18.739Z,8.00
2018-05-01T01:40:18.750Z,8.00
2018-05-01T01:41:18.698Z,8.00
2018-05-01T01:42:18.675Z,8.00
2018-05-01T01:43:18.654Z,8.00
2018-05-01T01:44:18.634Z,8.00
2018-05-01T01:45:18.621Z,8.00
2018-05-01T01:46:18.601Z,8.00
2018-05-01T01:47:18.566Z,8.00
2018-05-01T01:48:18.547Z,8.00
2018-05-01T01:49:18.523Z,8.00
2018-05-01T01:50:18.503Z,8.00
2018-05-01T01:51:18.480Z,8.00
2018-05-01T01:52:18.460Z,8.00
2018-05-01T01:53:18.438Z,8.00
2018-05-01T01:54:18.416Z,8.00
2018-05-01T01:55:18.395Z,8.00
2018-05-01T01:56:18.374Z,8.00
2018-05-01T01:57:18.350Z,8.00
2018-05-01T01:58:18.329Z,8.00
2018-05-01T01:59:18.307Z,8.00
2018-05-01T02:00:18.288Z,8.00
2018-05-01T02:01:18.264Z,8.00
2018-05-01T02:02:18.243Z,8.00
2018-05-01T02:03:18.220Z,8.00
2018-05-01T02:04:18.200Z,8.00
2018-05-01T02:05:18.188Z,8.00
2018-05-01T02:06:18.156Z,8.00
2018-05-01T02:07:18.134Z,8.00
2018-05-01T02:08:18.113Z,8.00
2018-05-01T02:09:18.091Z,12.00
2018-05-01T02:10:18.069Z,12.00
2018-05-01T02:11:18.049Z,8.00
2018-05-01T02:12:18.026Z,8.00
2018-05-01T02:13:18.003Z,8.00
2018-05-01T02:14:17.986Z,8.00
2018-05-01T02:15:17.971Z,8.00
2018-05-01T02:16:17.939Z,8.00
2018-05-01T02:17:17.920Z,8.00
2018-05-01T02:18:17.897Z,8.00
2018-05-01T02:19:17.884Z,8.00
2018-05-01T02:20:17.954Z,8.00
2018-05-01T02:21:17.832Z,8.00
2018-05-01T02:22:17.810Z,8.00
2018-05-01T02:23:17.788Z,8.00
2018-05-01T02:24:17.773Z,8.00
2018-05-01T02:25:17.755Z,8.00
2018-05-01T02:26:17.723Z,8.00
2018-05-01T02:27:17.709Z,8.00
2018-05-01T02:28:17.687Z,8.00
2018-05-01T02:29:17.662Z,8.00
2018-05-01T02:30:17.643Z,8.00
2018-05-01T02:31:17.620Z,8.00
2018-05-01T02:32:17.598Z,8.00
2018-05-01T02:33:17.570Z,8.00
2018-05-01T02:34:17.550Z,8.00
2018-05-01T02:35:17.529Z,8.00
2018-05-01T02:36:17.509Z,8.00
2018-05-01T02:37:17.486Z,8.00
2018-05-01T02:38:17.462Z,8.00
2018-05-01T02:39:17.442Z,8.00
2018-05-01T02:40:17.423Z,8.00
2018-05-01T02:41:17.499Z,8.00
2018-05-01T02:42:17.526Z,8.00
2018-05-01T02:43:17.361Z,8.00
2018-05-01T02:44:17.333Z,8.00
2018-05-01T02:45:17.313Z,8.00
2018-05-01T02:46:17.289Z,8.00
2018-05-01T02:47:17.292Z,8.00
2018-05-01T02:48:17.327Z,8.00
2018-05-01T02:49:17.224Z,8.00
2018-05-01T02:50:17.201Z,8.00
2018-05-01T02:51:17.180Z,8.00
2018-05-01T02:52:17.160Z,8.00
2018-05-01T02:53:17.136Z,8.00
2018-05-01T02:54:17.115Z,8.00
2018-05-01T02:55:17.094Z,8.00
2018-05-01T02:56:17.071Z,8.00
2018-05-01T02:57:17.047Z,8.00
2018-05-01T02:58:17.028Z,8.00
2018-05-01T02:59:17.010Z,8.00
2018-05-01T03:00:16.986Z,8.00
2018-05-01T03:01:16.961Z,8.00
2018-05-01T03:02:16.951Z,8.00
2018-05-01T03:03:16.918Z,8.00
2018-05-01T03:04:16.896Z,8.00
2018-05-01T03:05:16.881Z,8.00
2018-05-01T03:06:16.852Z,8.00
2018-05-01T03:07:16.839Z,8.00
2018-05-01T03:08:16.809Z,8.00
2018-05-01T03:09:16.785Z,8.00
2018-05-01T03:10:16.767Z,8.00
2018-05-01T03:11:16.744Z,8.00
2018-05-01T03:12:16.722Z,8.00
2018-05-01T03:13:16.699Z,8.00
2018-05-01T03:14:16.677Z,8.00
2018-05-01T03:15:16.656Z,8.00
2018-05-01T03:16:16.634Z,8.00
2018-05-01T03:17:16.612Z,8.00
2018-05-01T03:18:16.591Z,8.00
2018-05-01T03:19:16.575Z,8.00
2018-05-01T03:20:16.548Z,8.00
2018-05-01T03:21:16.524Z,8.00
2018-05-01T03:22:16.539Z,8.00
2018-05-01T03:23:16.481Z,8.00
2018-05-01T03:24:16.461Z,8.00
2018-05-01T03:25:16.439Z,8.00
2018-05-01T03:26:16.418Z,8.00
2018-05-01T03:27:16.402Z,8.00
2018-05-01T03:28:16.372Z,8.00
2018-05-01T03:29:16.359Z,12.00
2018-05-01T03:30:16.331Z,12.00
2018-05-01T03:31:16.307Z,12.00
2018-05-01T03:32:16.286Z,8.00
2018-05-01T03:33:16.263Z,8.00
2018-05-01T03:34:16.242Z,12.00
2018-05-01T03:35:16.231Z,12.00
2018-05-01T03:36:16.208Z,12.00
2018-05-01T03:37:16.183Z,12.00
2018-05-01T03:38:16.153Z,16.00
2018-05-01T03:39:16.159Z,12.00
2018-05-01T03:40:16.110Z,12.00
2018-05-01T03:41:16.087Z,20.00
2018-05-01T03:42:16.072Z,16.00
2018-05-01T03:43:16.044Z,16.00
2018-05-01T03:44:16.024Z,16.00
2018-05-01T03:45:16.008Z,20.00
2018-05-01T03:46:15.977Z,24.00
2018-05-01T03:47:15.959Z,24.00
2018-05-01T03:48:15.936Z,24.00
2018-05-01T03:49:15.913Z,24.00
2018-05-01T03:50:15.892Z,24.00
2018-05-01T03:51:15.871Z,20.00
2018-05-01T03:52:15.848Z,12.00
2018-05-01T03:53:15.826Z,16.00
2018-05-01T03:54:15.805Z,20.00
2018-05-01T03:55:15.783Z,20.00
2018-05-01T03:56:15.776Z,24.00
2018-05-01T03:57:15.740Z,32.00
2018-05-01T03:58:15.717Z,24.00
2018-05-01T03:59:15.696Z,20.00
2018-05-01T04:00:15.676Z,32.00
2018-05-01T04:01:15.653Z,24.00
2018-05-01T04:02:15.658Z,24.00
2018-05-01T04:03:15.609Z,28.00
2018-05-01T04:04:15.590Z,32.00
2018-05-01T04:05:15.582Z,28.00
2018-05-01T04:06:15.543Z,36.00
2018-05-01T04:07:15.523Z,36.00
2018-05-01T04:08:15.502Z,44.00
2018-05-01T04:09:15.480Z,44.00
2018-05-01T04:10:15.459Z,56.00
2018-05-01T04:11:15.436Z,48.00
2018-05-01T04:12:15.420Z,72.00
2018-05-01T04:13:15.396Z,72.00
2018-05-01T04:14:15.372Z,84.00
2018-05-01T04:15:15.357Z,76.00
2018-05-01T04:16:15.329Z,84.00
2018-05-01T04:17:15.305Z,96.00
2018-05-01T04:18:15.362Z,96.00
2018-05-01T04:19:15.268Z,112.00
2018-05-01T04:20:15.242Z,124.00
2018-05-01T04:21:15.224Z,104.00
2018-05-01T04:22:15.199Z,104.00
2018-05-01T04:23:15.178Z,84.00
2018-05-01T04:24:15.155Z,108.00
2018-05-01T04:25:15.133Z,124.00
2018-05-01T04:26:15.113Z,116.00
2018-05-01T04:27:15.103Z,192.00
2018-05-01T04:28:15.075Z,220.00
2018-05-01T04:29:15.049Z,148.00
2018-05-01T04:30:15.024Z,192.00
2018-05-01T04:31:15.005Z,168.00
2018-05-01T04:32:14.982Z,148.00
2018-05-01T04:33:14.961Z,180.00
2018-05-01T04:34:14.937Z,184.00
2018-05-01T04:35:14.915Z,232.00
2018-05-01T04:36:14.895Z,168.00
2018-05-01T04:37:14.873Z,220.00
2018-05-01T04:38:14.852Z,200.00
2018-05-01T04:39:14.828Z,236.00
2018-05-01T04:40:14.808Z,236.00
2018-05-01T04:41:14.786Z,308.00
2018-05-01T04:42:14.765Z,216.00
2018-05-01T04:43:14.797Z,344.00
2018-05-01T04:44:14.720Z,336.00
2018-05-01T04:45:14.698Z,516.00
2018-05-01T04:46:14.678Z,436.00
2018-05-01T04:47:14.655Z,460.00
2018-05-01T04:48:14.633Z,512.00
2018-05-01T04:49:14.698Z,572.00
2018-05-01T04:50:14.590Z,528.00
2018-05-01T04:51:14.568Z,544.00
2018-05-01T04:52:14.550Z,548.00
2018-05-01T04:53:14.524Z,532.00
2018-05-01T04:54:14.503Z,396.00
2018-05-01T04:55:14.482Z,364.00
2018-05-01T04:56:14.461Z,384.00
2018-05-01T04:57:14.442Z,384.00
2018-05-01T04:58:14.418Z,392.00
2018-05-01T04:59:14.398Z,428.00
2018-05-01T05:00:14.372Z,600.00
2018-05-01T05:01:14.354Z,688.00
2018-05-01T05:02:14.330Z,512.00
2018-05-01T05:03:14.309Z,616.00
2018-05-01T05:04:14.287Z,484.00
2018-05-01T05:05:14.265Z,520.00
2018-05-01T05:06:14.247Z,792.00
2018-05-01T05:07:14.237Z,620.00
2018-05-01T05:08:14.201Z,628.00
2018-05-01T05:09:14.178Z,752.00
2018-05-01T05:10:14.156Z,852.00
2018-05-01T05:11:14.134Z,660.00
2018-05-01T05:12:14.121Z,592.00
2018-05-01T05:13:14.090Z,480.00
2018-05-01T05:14:14.070Z,504.00
2018-05-01T05:15:14.060Z,548.00
2018-05-01T05:16:14.027Z,624.00
2018-05-01T05:17:14.005Z,724.00
2018-05-01T05:18:13.982Z,816.00
2018-05-01T05:19:13.961Z,868.00
2018-05-01T05:20:13.941Z,776.00
2018-05-01T05:21:13.919Z,856.00
2018-05-01T05:22:13.896Z,928.00
2018-05-01T05:23:13.878Z,780.00
2018-05-01T05:24:13.864Z,988.00
2018-05-01T05:25:13.832Z,928.00
2018-05-01T05:26:13.810Z,812.00
2018-05-01T05:27:13.787Z,1148.00
2018-05-01T05:28:13.771Z,1276.00
2018-05-01T05:29:13.746Z,1108.00
2018-05-01T05:30:13.723Z,932.00
2018-05-01T05:31:13.701Z,932.00
2018-05-01T05:32:13.684Z,836.00
2018-05-01T05:33:13.656Z,1108.00
2018-05-01T05:34:13.637Z,888.00
2018-05-01T05:35:13.716Z,1036.00
2018-05-01T05:36:13.610Z,900.00
2018-05-01T05:37:13.573Z,1004.00
2018-05-01T05:38:13.557Z,884.00
2018-05-01T05:39:13.536Z,1020.00
2018-05-01T05:40:13.505Z,924.00
2018-05-01T05:41:13.485Z,988.00
2018-05-01T05:42:13.461Z,956.00
2018-05-01T05:43:13.441Z,944.00
2018-05-01T05:44:13.419Z,992.00
2018-05-01T05:45:13.397Z,1016.00
2018-05-01T05:46:13.375Z,856.00
2018-05-01T05:47:13.357Z,788.00
2018-05-01T05:48:13.332Z,960.00
2018-05-01T05:49:13.311Z,780.00
2018-05-01T05:50:13.297Z,860.00
2018-05-01T05:51:13.268Z,984.00
2018-05-01T05:52:13.247Z,904.00
2018-05-01T05:53:13.225Z,976.00
2018-05-01T05:54:13.205Z,836.00
2018-05-01T05:55:13.183Z,772.00
2018-05-01T05:56:13.161Z,940.00
2018-05-01T05:57:13.140Z,1004.00
2018-05-01T05:58:13.118Z,1204.00
2018-05-01T05:59:13.104Z,896.00
2018-05-01T06:00:13.084Z,840.00
2018-05-01T06:01:13.071Z,988.00
2018-05-01T06:02:13.034Z,944.00
2018-05-01T06:03:13.012Z,824.00
2018-05-01T06:04:12.989Z,944.00
2018-05-01T06:05:12.970Z,956.00
2018-05-01T06:06:12.962Z,892.00
2018-05-01T06:07:12.925Z,1144.00
2018-05-01T06:08:12.904Z,1024.00
2018-05-01T06:09:12.885Z,1280.00
2018-05-01T06:10:12.863Z,1152.00
2018-05-01T06:11:12.841Z,1188.00
2018-05-01T06:12:12.827Z,1324.00
2018-05-01T06:13:12.797Z,1232.00
2018-05-01T06:14:12.779Z,1560.00
2018-05-01T06:15:12.758Z,1204.00
2018-05-01T06:16:12.733Z,1468.00
2018-05-01T06:17:12.712Z,1428.00
2018-05-01T06:18:12.695Z,1476.00
2018-05-01T06:19:12.670Z,1460.00
2018-05-01T06:20:12.648Z,1812.00
2018-05-01T06:21:12.628Z,1500.00
2018-05-01T06:22:12.606Z,1676.00
2018-05-01T06:23:12.587Z,2128.00
2018-05-01T06:24:12.561Z,1712.00
2018-05-01T06:25:12.540Z,1708.00
2018-05-01T06:26:12.520Z,1756.00
2018-05-01T06:27:12.502Z,1604.00
2018-05-01T06:28:12.476Z,2048.00
2018-05-01T06:29:12.453Z,2120.00
2018-05-01T06:30:12.435Z,1372.00
2018-05-01T06:31:12.500Z,1468.00
2018-05-01T06:32:12.392Z,1700.00
2018-05-01T06:33:12.378Z,1688.00
2018-05-01T06:34:12.356Z,1800.00
2018-05-01T06:35:12.327Z,2288.00
2018-05-01T06:36:12.306Z,1512.00
2018-05-01T06:37:12.283Z,2228.00
2018-05-01T06:38:12.263Z,1684.00
2018-05-01T06:39:12.242Z,1608.00
2018-05-01T06:40:12.219Z,1836.00
2018-05-01T06:41:12.200Z,1260.00
2018-05-01T06:42:12.194Z,2244.00
2018-05-01T06:43:12.162Z,2376.00
2018-05-01T06:44:12.135Z,2248.00
2018-05-01T06:45:12.112Z,2040.00
2018-05-01T06:46:12.091Z,3064.00
2018-05-01T06:47:12.078Z,2164.00
2018-05-01T06:48:12.054Z,2164.00
2018-05-01T06:49:12.076Z,3456.00
2018-05-01T06:50:12.006Z,2412.00
2018-05-01T06:51:11.983Z,2608.00
2018-05-01T06:52:11.964Z,2476.00
2018-05-01T06:53:11.942Z,2092.00
2018-05-01T06:54:11.921Z,2316.00
2018-05-01T06:55:11.900Z,2356.00
2018-05-01T06:56:11.879Z,1936.00
2018-05-01T06:57:11.856Z,1672.00
2018-05-01T06:58:11.836Z,2100.00
2018-05-01T06:59:11.834Z,1544.00
2018-05-01T07:00:11.795Z,1444.00
2018-05-01T07:01:11.806Z,2056.00
2018-05-01T07:02:11.751Z,1800.00
2018-05-01T07:03:11.730Z,2312.00
2018-05-01T07:04:11.740Z,2336.00
2018-05-01T07:05:11.731Z,2960.00
2018-05-01T07:06:11.666Z,3252.00
2018-05-01T07:07:11.647Z,2808.00
2018-05-01T07:08:11.625Z,2136.00
2018-05-01T07:09:11.603Z,2268.00
2018-05-01T07:10:11.601Z,2856.00
2018-05-01T07:11:11.561Z,2696.00
2018-05-01T07:12:11.540Z,2700.00
2018-05-01T07:13:11.670Z,2392.00
2018-05-01T07:14:11.507Z,1876.00
2018-05-01T07:15:11.479Z,1672.00
2018-05-01T07:16:11.456Z,1716.00
2018-05-01T07:17:11.443Z,2308.00
2018-05-01T07:18:11.418Z,1820.00
2018-05-01T07:19:11.395Z,2080.00
2018-05-01T07:20:11.380Z,1976.00
2018-05-01T07:21:11.368Z,1880.00
2018-05-01T07:22:11.347Z,1528.00
2018-05-01T07:23:11.309Z,1976.00
2018-05-01T07:24:11.295Z,2564.00
2018-05-01T07:25:11.266Z,2188.00
2018-05-01T07:26:11.247Z,2332.00
2018-05-01T07:27:11.230Z,2556.00
2018-05-01T07:28:11.206Z,3360.00
2018-05-01T07:29:11.238Z,2464.00
2018-05-01T07:30:11.164Z,2380.00
2018-05-01T07:31:11.150Z,1952.00
2018-05-01T07:32:11.124Z,2288.00
2018-05-01T07:33:11.114Z,2508.00
2018-05-01T07:34:11.079Z,1924.00
2018-05-01T07:35:11.065Z,1864.00
2018-05-01T07:36:11.044Z,1836.00
2018-05-01T07:37:11.025Z,1924.00
2018-05-01T07:38:10.997Z,2248.00
2018-05-01T07:39:10.976Z,2156.00
2018-05-01T07:40:10.962Z,2232.00
2018-05-01T07:41:10.936Z,1908.00
2018-05-01T07:42:10.912Z,1980.00
2018-05-01T07:43:10.890Z,2092.00
2018-05-01T07:44:10.871Z,1844.00
2018-05-01T07:45:10.848Z,2180.00
2018-05-01T07:46:10.829Z,2296.00
2018-05-01T07:47:10.806Z,2148.00
2018-05-01T07:48:10.795Z,2500.00
2018-05-01T07:49:10.851Z,2336.00
2018-05-01T07:50:10.744Z,2648.00
2018-05-01T07:51:10.734Z,2520.00
2018-05-01T07:52:10.712Z,2328.00
2018-05-01T07:53:10.713Z,2680.00
2018-05-01T07:54:10.661Z,3540.00
2018-05-01T07:55:10.641Z,3136.00
2018-05-01T07:56:10.628Z,3060.00
2018-05-01T07:57:10.607Z,3332.00
2018-05-01T07:58:10.581Z,3716.00
2018-05-01T07:59:10.556Z,4384.00
2018-05-01T08:00:10.537Z,4276.00
2018-05-01T08:01:10.519Z,3396.00
2018-05-01T08:02:10.502Z,3472.00
2018-05-01T08:03:10.474Z,3812.00
2018-05-01T08:04:10.453Z,2972.00
2018-05-01T08:05:10.431Z,3288.00
2018-05-01T08:06:10.437Z,4112.00
2018-05-01T08:07:10.391Z,4392.00
2018-05-01T08:08:10.389Z,3500.00
2018-05-01T08:09:10.369Z,3616.00
2018-05-01T08:10:10.328Z,4340.00
2018-05-01T08:11:10.307Z,3392.00
2018-05-01T08:12:10.310Z,3272.00
2018-05-01T08:13:10.268Z,3576.00
2018-05-01T08:14:10.245Z,3528.00
2018-05-01T08:15:10.231Z,3156.00
2018-05-01T08:16:10.204Z,3800.00
2018-05-01T08:17:10.184Z,3952.00
2018-05-01T08:18:10.290Z,3192.00
2018-05-01T08:19:10.149Z,3064.00
2018-05-01T08:20:10.124Z,2728.00
2018-05-01T08:21:10.103Z,2472.00
2018-05-01T08:22:10.079Z,2952.00
2018-05-01T08:23:10.085Z,3012.00
2018-05-01T08:24:10.039Z,2836.00
2018-05-01T08:25:10.021Z,2604.00
2018-05-01T08:26:09.995Z,2344.00
2018-05-01T08:27:09.978Z,2144.00
2018-05-01T08:28:09.955Z,1960.00
2018-05-01T08:29:09.945Z,1880.00
2018-05-01T08:30:09.918Z,1964.00
2018-05-01T08:31:09.894Z,2132.00
2018-05-01T08:32:09.874Z,2748.00
2018-05-01T08:33:09.852Z,3680.00
2018-05-01T08:34:09.831Z,4060.00
2018-05-01T08:35:09.811Z,3656.00
2018-05-01T08:36:09.790Z,5752.00
2018-05-01T08:37:09.769Z,5192.00
2018-05-01T08:38:09.755Z,5716.00
2018-05-01T08:39:09.728Z,6692.00
2018-05-01T08:40:09.708Z,7392.00
2018-05-01T08:41:09.689Z,7476.00
2018-05-01T08:42:09.673Z,7828.00
2018-05-01T08:43:09.645Z,8948.00
2018-05-01T08:44:09.626Z,9536.00
2018-05-01T08:45:09.603Z,10116.00
2018-05-01T08:46:09.585Z,10668.00
2018-05-01T08:47:09.564Z,9260.00
2018-05-01T08:48:09.543Z,9808.00
2018-05-01T08:49:09.527Z,8920.00
2018-05-01T08:50:09.507Z,10884.00
2018-05-01T08:51:09.490Z,13740.00
2018-05-01T08:52:09.463Z,14576.00
2018-05-01T08:53:09.443Z,17152.00
2018-05-01T08:54:09.423Z,10708.00
2018-05-01T08:55:09.404Z,12212.00
2018-05-01T08:56:09.383Z,14288.00
2018-05-01T08:57:09.370Z,16084.00
2018-05-01T08:58:09.342Z,17952.00
2018-05-01T08:59:09.331Z,17472.00
2018-05-01T09:00:09.304Z,18176.00
2018-05-01T09:01:09.309Z,21696.00
2018-05-01T09:02:09.264Z,25280.00
2018-05-01T09:03:09.347Z,21824.00
2018-05-01T09:04:09.260Z,17952.00
2018-05-01T09:05:09.210Z,27584.00
2018-05-01T09:06:09.204Z,15988.00
2018-05-01T09:07:09.179Z,13612.00
2018-05-01T09:08:09.157Z,10444.00
2018-05-01T09:09:09.132Z,9196.00
2018-05-01T09:10:09.117Z,9456.00
2018-05-01T09:11:09.113Z,9456.00
2018-05-01T09:12:09.080Z,11520.00
2018-05-01T09:13:09.060Z,10436.00
2018-05-01T09:14:09.056Z,7620.00
2018-05-01T09:15:09.027Z,9392.00
2018-05-01T09:16:09.011Z,9472.00
2018-05-01T09:17:08.985Z,7496.00
2018-05-01T09:18:09.090Z,11308.00
2018-05-01T09:19:08.956Z,8980.00
2018-05-01T09:20:08.933Z,8032.00
2018-05-01T09:21:08.920Z,8648.00
2018-05-01T09:22:08.893Z,7768.00
2018-05-01T09:23:08.877Z,12080.00
2018-05-01T09:24:08.857Z,9068.00
2018-05-01T09:25:08.845Z,9068.00
2018-05-01T09:26:08.820Z,11372.00
2018-05-01T09:27:08.811Z,14624.00
2018-05-01T09:28:08.785Z,12256.00
2018-05-01T09:29:08.765Z,15364.00
2018-05-01T09:30:08.751Z,16448.00
2018-05-01T09:31:08.729Z,11044.00
2018-05-01T09:32:08.715Z,11896.00
2018-05-01T09:33:08.691Z,10728.00
2018-05-01T09:34:08.673Z,13096.00
2018-05-01T09:35:08.675Z,12144.00
2018-05-01T09:36:08.636Z,11424.00
2018-05-01T09:37:08.619Z,15944.00
2018-05-01T09:38:08.601Z,17664.00
2018-05-01T09:39:08.585Z,23104.00
2018-05-01T09:40:08.562Z,22016.00
2018-05-01T09:41:08.544Z,25888.00
2018-05-01T09:42:08.526Z,22912.00
2018-05-01T09:43:08.517Z,20128.00
2018-05-01T09:44:08.491Z,20160.00
2018-05-01T09:45:08.473Z,24480.00
2018-05-01T09:46:08.573Z,37792.00
2018-05-01T09:47:08.437Z,21952.00
2018-05-01T09:48:08.426Z,23712.00
2018-05-01T09:49:08.407Z,34144.00
2018-05-01T09:50:08.383Z,26880.00
2018-05-01T09:51:08.382Z,47808.00
2018-05-01T09:52:08.350Z,21504.00
2018-05-01T09:53:08.343Z,48736.00
2018-05-01T09:54:08.317Z,46880.00
2018-05-01T09:55:08.304Z,41216.00
2018-05-01T09:56:08.283Z,35392.00
2018-05-01T09:57:08.271Z,38240.00
2018-05-01T09:58:08.250Z,28192.00
2018-05-01T09:59:08.242Z,30080.00
2018-05-01T10:00:08.220Z,32160.00
2018-05-01T10:01:08.208Z,18592.00
2018-05-01T10:02:08.192Z,13688.00
2018-05-01T10:03:08.176Z,22080.00
2018-05-01T10:04:08.156Z,26080.00
2018-05-01T10:05:08.142Z,46048.00
2018-05-01T10:06:08.131Z,22464.00
2018-05-01T10:07:08.125Z,21696.00
2018-05-01T10:08:08.103Z,19008.00
2018-05-01T10:09:08.082Z,15780.00
2018-05-01T10:10:08.070Z,18176.00
2018-05-01T10:11:08.052Z,14284.00
2018-05-01T10:12:08.036Z,12256.00
2018-05-01T10:13:08.024Z,15372.00
2018-05-01T10:14:08.007Z,24544.00
2018-05-01T10:15:08.003Z,15476.00
2018-05-01T10:16:07.978Z,13172.00
2018-05-01T10:17:07.962Z,17568.00
2018-05-01T10:18:07.945Z,14228.00
2018-05-01T10:19:07.937Z,19680.00
2018-05-01T10:20:07.917Z,18144.00
2018-05-01T10:21:07.900Z,18592.00
2018-05-01T10:22:07.882Z,18944.00
2018-05-01T10:23:07.878Z,19552.00
2018-05-01T10:24:07.854Z,22848.00
2018-05-01T10:25:07.836Z,23744.00
2018-05-01T10:26:07.825Z,26560.00
2018-05-01T10:27:07.806Z,21344.00
2018-05-01T10:28:07.792Z,18144.00
2018-05-01T10:29:07.784Z,18784.00
2018-05-01T10:30:07.767Z,20160.00
2018-05-01T10:31:07.823Z,19936.00
2018-05-01T10:32:07.736Z,20256.00
2018-05-01T10:33:07.710Z,21984.00
2018-05-01T10:34:07.696Z,22368.00
2018-05-01T10:35:07.678Z,23168.00
2018-05-01T10:36:07.665Z,23136.00
2018-05-01T10:37:07.655Z,24960.00
2018-05-01T10:38:07.630Z,24032.00
2018-05-01T10:39:07.617Z,19776.00
2018-05-01T10:40:07.631Z,17632.00
2018-05-01T10:41:07.585Z,14724.00
2018-05-01T10:42:07.571Z,13700.00
2018-05-01T10:43:07.553Z,13060.00
2018-05-01T10:44:07.631Z,16272.00
2018-05-01T10:45:07.524Z,13784.00
2018-05-01T10:46:07.509Z,13644.00
2018-05-01T10:47:07.500Z,14920.00
2018-05-01T10:48:07.487Z,14436.00
2018-05-01T10:49:07.472Z,16088.00
2018-05-01T10:50:07.446Z,16144.00
2018-05-01T10:51:07.440Z,15340.00
2018-05-01T10:52:07.431Z,17536.00
2018-05-01T10:53:07.398Z,19168.00
2018-05-01T10:54:07.396Z,22656.00
2018-05-01T10:55:07.369Z,26368.00
2018-05-01T10:56:07.357Z,28992.00
2018-05-01T10:57:07.342Z,28704.00
2018-05-01T10:58:07.329Z,39680.00
2018-05-01T10:59:07.314Z,106720.00
2018-05-01T11:00:07.296Z,43936.00
2018-05-01T11:01:07.288Z,103872.00
2018-05-01T11:02:07.259Z,27136.00
2018-05-01T11:03:07.261Z,23712.00
2018-05-01T11:04:07.958Z,73312.00
2018-05-01T11:05:07.225Z,44352.00
2018-05-01T11:06:07.206Z,36640.00
2018-05-01T11:07:07.190Z,83328.00
2018-05-01T11:08:07.178Z,52640.00
2018-05-01T11:09:07.165Z,27616.00
2018-05-01T11:10:07.152Z,19808.00
2018-05-01T11:11:07.149Z,16512.00
2018-05-01T11:12:07.128Z,12716.00
2018-05-01T11:13:07.119Z,11668.00
2018-05-01T11:14:07.115Z,11116.00
2018-05-01T11:15:07.096Z,11876.00
2018-05-01T11:16:07.082Z,12396.00
2018-05-01T11:17:07.062Z,13104.00
2018-05-01T11:18:07.052Z,14048.00
2018-05-01T11:19:07.036Z,14900.00
2018-05-01T11:20:07.025Z,20224.00
2018-05-01T11:21:07.010Z,19200.00
2018-05-01T11:22:07.005Z,20064.00
2018-05-01T11:23:06.982Z,29728.00
2018-05-01T11:24:06.968Z,24448.00
2018-05-01T11:25:06.965Z,20992.00
2018-05-01T11:26:06.981Z,30784.00
2018-05-01T11:27:06.930Z,27168.00
2018-05-01T11:28:06.915Z,26336.00
2018-05-01T11:29:06.902Z,23712.00
2018-05-01T11:30:06.884Z,29344.00
2018-05-01T11:31:06.879Z,24192.00
2018-05-01T11:32:06.858Z,16544.00
2018-05-01T11:33:06.857Z,15924.00
2018-05-01T11:34:06.830Z,13444.00
2018-05-01T11:35:06.829Z,15352.00
2018-05-01T11:36:06.809Z,30432.00
2018-05-01T11:37:06.799Z,29856.00
2018-05-01T11:38:06.791Z,30816.00
2018-05-01T11:39:06.760Z,33536.00
2018-05-01T11:40:06.748Z,46624.00
2018-05-01T11:41:06.781Z,34688.00
2018-05-01T11:42:06.717Z,31328.00
2018-05-01T11:43:06.714Z,29952.00
2018-05-01T11:44:06.711Z,34080.00
2018-05-01T11:45:06.676Z,18784.00
2018-05-01T11:46:06.662Z,25216.00
2018-05-01T11:47:06.649Z,31136.00
2018-05-01T11:48:06.638Z,18048.00
2018-05-01T11:49:06.630Z,25184.00
2018-05-01T11:50:06.616Z,16960.00
2018-05-01T11:51:06.599Z,18144.00
2018-05-01T11:52:06.588Z,20352.00
2018-05-01T11:53:06.572Z,12900.00
2018-05-01T11:54:06.570Z,12976.00
2018-05-01T11:55:06.550Z,18464.00
2018-05-01T11:56:06.529Z,15856.00
2018-05-01T11:57:06.511Z,16992.00
2018-05-01T11:58:06.499Z,17344.00
2018-05-01T11:59:06.489Z,16576.00
2018-05-01T12:00:06.487Z,16576.00
2018-05-01T12:01:06.454Z,16512.00
2018-05-01T12:02:06.456Z,16768.00
2018-05-01T12:03:06.431Z,16704.00
2018-05-01T12:04:06.414Z,16736.00
2018-05-01T12:05:06.405Z,16736.00
2018-05-01T12:06:06.396Z,17312.00
2018-05-01T12:07:06.378Z,17952.00
2018-05-01T12:08:06.362Z,18656.00
2018-05-01T12:09:06.348Z,18720.00
2018-05-01T12:10:06.329Z,18720.00
2018-05-01T12:11:06.314Z,17344.00
2018-05-01T12:12:06.298Z,16736.00
2018-05-01T12:13:06.291Z,16352.00
2018-05-01T12:14:06.283Z,16320.00
2018-05-01T12:15:06.270Z,15784.00
2018-05-01T12:16:06.269Z,15508.00
2018-05-01T12:17:06.223Z,15692.00
2018-05-01T12:18:06.211Z,16320.00
2018-05-01T12:19:06.212Z,17920.00
2018-05-01T12:20:06.183Z,18592.00
2018-05-01T12:21:06.174Z,20800.00
2018-05-01T12:22:06.154Z,19424.00
2018-05-01T12:23:06.145Z,17504.00
2018-05-01T12:24:06.139Z,16352.00